Time;durP1;ratioP1;P1;durP2;ratioP2;P2;SDS_P1;SDS_P2;PMS_P1;PMS_P2;Temp;Humidity;BMP_temperature;BMP_pressure;BME280_temperature;BME280_humidity;BME280_pressure;Samples;Min_cycle;Max_cycle;Signal;HPM_P1;HPM_P2
2023/11/04 00:02:22;;;;;;;2.40;0.80;;;;;;;10.63;91.78;98436.50;5033685;28;20493;-69
2023/11/04 00:04:48;;;;;;;1.97;0.50;;;;;;;10.62;91.27;98438.38;5033546;28;20459;-69
2023/11/04 00:07:17;;;;;;;2.30;0.50;;;;;;;10.58;90.85;98432.09;5033361;28;20857;-69
2023/11/04 00:09:45;;;;;;;5.27;1.10;;;;;;;10.50;91.67;98430.41;5033555;28;20917;-69
2023/11/04 00:12:12;;;;;;;2.07;0.60;;;;;;;10.41;91.69;98436.00;5033677;28;20957;-70
2023/11/04 00:14:40;;;;;;;1.87;0.43;;;;;;;10.35;91.96;98434.69;5034106;28;20462;-69
2023/11/04 00:17:07;;;;;;;2.87;1.03;;;;;;;10.27;91.91;98432.97;5033589;28;20451;-69
2023/11/04 00:19:33;;;;;;;2.50;0.60;;;;;;;10.24;91.43;98434.47;5033573;28;20431;-70
2023/11/04 00:22:00;;;;;;;2.20;0.70;;;;;;;10.19;92.38;98439.34;5034091;28;20530;-69
2023/11/04 00:24:26;;;;;;;2.57;0.70;;;;;;;10.17;92.20;98441.59;5033178;28;20541;-69
2023/11/04 00:26:55;;;;;;;3.30;0.90;;;;;;;10.17;92.31;98445.09;5033433;28;20445;-69
2023/11/04 00:29:21;;;;;;;2.30;0.70;;;;;;;10.12;92.97;98445.34;5035876;28;20482;-69
2023/11/04 00:31:48;;;;;;;2.23;0.57;;;;;;;10.11;92.75;98449.97;5037202;28;20529;-69
2023/11/04 00:34:15;;;;;;;1.93;0.50;;;;;;;10.08;92.49;98447.97;5037517;28;20542;-69
2023/11/04 00:36:41;;;;;;;2.03;0.53;;;;;;;10.07;92.71;98446.41;5037169;28;20442;-69
2023/11/04 00:39:09;;;;;;;2.20;0.80;;;;;;;10.03;92.96;98450.16;5037253;28;20537;-69
2023/11/04 00:44:20;;;;;;;1.80;0.40;;;;;;;9.91;93.17;98452.94;5035253;28;20478;-65
2023/11/04 00:46:47;;;;;;;2.70;0.80;;;;;;;9.83;94.73;98460.91;5036974;28;20501;-65
2023/11/04 00:49:13;;;;;;;2.00;0.50;;;;;;;9.83;94.96;98457.41;5037050;28;20589;-65
2023/11/04 00:51:40;;;;;;;2.20;0.73;;;;;;;9.77;95.48;98459.56;5036841;28;20467;-64
2023/11/04 00:54:07;;;;;;;4.30;1.00;;;;;;;9.75;95.93;98467.25;5036879;28;20542;-64
2023/11/04 00:56:34;;;;;;;3.60;0.63;;;;;;;9.76;95.99;98471.53;5037349;28;20443;-64
2023/11/04 00:59:00;;;;;;;2.70;1.20;;;;;;;9.73;95.26;98477.63;5036992;28;20465;-65
2023/11/04 01:01:29;;;;;;;2.30;0.60;;;;;;;9.79;94.85;98475.47;5036774;28;20534;-65
2023/11/04 01:03:55;;;;;;;1.90;0.50;;;;;;;9.75;95.29;98475.38;5037091;28;20966;-65
2023/11/04 01:06:22;;;;;;;2.83;0.90;;;;;;;9.73;95.87;98476.84;5036861;28;20810;-65
2023/11/04 01:08:49;;;;;;;2.37;0.80;;;;;;;9.74;95.88;98479.22;5036931;28;20509;-64
2023/11/04 01:11:17;;;;;;;2.20;0.70;;;;;;;9.70;95.29;98480.25;5036867;28;20470;-64
2023/11/04 01:13:44;;;;;;;2.10;0.60;;;;;;;9.70;96.03;98480.25;5036770;28;20517;-67
2023/11/04 01:16:11;;;;;;;2.80;1.43;;;;;;;9.69;96.17;98475.94;5037215;28;20504;-67
2023/11/04 01:18:39;;;;;;;2.00;0.40;;;;;;;9.61;95.11;98483.09;5037012;28;20852;-67
2023/11/04 01:21:06;;;;;;;2.40;0.60;;;;;;;9.59;95.49;98479.94;5036909;28;20780;-66
2023/11/04 01:23:33;;;;;;;2.00;0.47;;;;;;;9.63;96.16;98480.06;5036626;28;20517;-66
2023/11/04 01:26:00;;;;;;;2.00;0.60;;;;;;;9.59;96.66;98479.94;5036672;28;20826;-67
2023/11/04 01:28:27;;;;;;;4.53;1.03;;;;;;;9.59;96.52;98475.31;5036571;28;20443;-66
2023/11/04 01:30:54;;;;;;;2.30;0.60;;;;;;;9.59;95.26;98469.13;5036416;28;21076;-66
2023/11/04 01:33:20;;;;;;;2.00;0.40;;;;;;;9.53;95.38;98478.66;5036189;28;20493;-66
2023/11/04 01:35:48;;;;;;;2.30;0.70;;;;;;;9.43;94.96;98474.53;5036675;28;20526;-66
2023/11/04 01:38:15;;;;;;;2.00;0.50;;;;;;;9.40;95.36;98474.44;5036580;28;20467;-66
2023/11/04 01:40:49;;;;;;;3.90;0.93;;;;;;;9.40;95.03;98477.91;5035940;28;20980;-66
2023/11/04 01:43:24;;;;;;;2.17;0.60;;;;;;;9.34;94.53;98473.88;5036079;28;20838;-66
2023/11/04 01:46:09;;;;;;;1.90;0.40;;;;;;;9.28;94.88;98478.75;5036296;28;20853;-66
2023/11/04 01:48:36;;;;;;;8.43;0.60;;;;;;;9.24;94.60;98471.66;5036591;28;20451;-66
2023/11/04 01:51:05;;;;;;;2.37;0.70;;;;;;;9.20;94.17;98479.66;5035989;28;20990;-67
2023/11/04 01:53:32;;;;;;;1.90;0.40;;;;;;;9.16;94.87;98478.78;5036230;28;20463;-67
2023/11/04 01:55:59;;;;;;;1.90;0.50;;;;;;;9.17;95.06;98485.78;5036353;28;20782;-67
2023/11/04 01:58:28;;;;;;;2.30;0.60;;;;;;;9.13;94.47;98489.50;5036119;28;20854;-67
2023/11/04 02:00:54;;;;;;;3.03;0.60;;;;;;;9.10;95.48;98488.28;5036036;28;20522;-67
2023/11/04 02:03:21;;;;;;;2.30;0.50;;;;;;;9.06;96.23;98487.38;5035800;28;20495;-67
2023/11/04 02:05:48;;;;;;;2.40;0.67;;;;;;;9.03;96.15;98490.75;5036355;28;20526;-66
2023/11/04 02:08:16;;;;;;;2.00;0.60;;;;;;;9.05;95.88;98493.91;5035823;28;20477;-66
2023/11/04 02:10:43;;;;;;;2.37;0.57;;;;;;;9.00;95.41;98494.94;5035742;28;20541;-66
2023/11/04 02:13:10;;;;;;;2.83;0.80;;;;;;;8.95;95.92;98497.88;5035803;28;20467;-67
2023/11/04 02:15:36;;;;;;;4.57;0.80;;;;;;;8.93;95.74;98491.25;5035739;28;20499;-66
2023/11/04 02:18:03;;;;;;;2.73;0.77;;;;;;;8.86;94.71;98491.06;5035998;28;20541;-66
2023/11/04 02:20:33;;;;;;;2.47;0.90;;;;;;;8.82;94.27;98491.72;5035671;28;20513;-66
2023/11/04 02:23:01;;;;;;;2.57;0.73;;;;;;;8.76;95.57;98493.06;5035544;28;20853;-65
2023/11/04 02:25:31;;;;;;;1.87;0.40;;;;;;;8.75;95.51;98498.81;5035908;28;20471;-65
2023/11/04 02:27:57;;;;;;;2.10;0.50;;;;;;;8.76;94.89;98503.06;5035388;28;20526;-66
2023/11/04 02:30:24;;;;;;;2.97;0.73;;;;;;;8.77;95.80;98500.06;5035320;28;20548;-65
2023/11/04 02:32:51;;;;;;;1.90;0.40;;;;;;;8.73;95.80;98499.16;5035753;28;20497;-66
2023/11/04 02:35:19;;;;;;;2.60;0.80;;;;;;;8.67;95.97;98505.91;5035157;28;20907;-66
2023/11/04 02:37:47;;;;;;;2.10;0.50;;;;;;;8.62;96.74;98503.44;5035242;28;20451;-65
2023/11/04 02:40:15;;;;;;;2.30;0.73;;;;;;;8.58;95.47;98508.72;5034913;28;20447;-65
2023/11/04 02:42:42;;;;;;;2.30;0.60;;;;;;;8.52;94.74;98514.69;5034814;28;20457;-65
2023/11/04 02:45:10;;;;;;;2.00;0.40;;;;;;;8.47;95.32;98521.09;5035071;28;20834;-66
2023/11/04 02:47:36;;;;;;;2.67;0.97;;;;;;;8.46;95.40;98522.25;5034921;28;20812;-66
2023/11/04 02:50:03;;;;;;;2.20;0.63;;;;;;;8.42;95.49;98515.94;5034716;28;20479;-66
2023/11/04 02:52:30;;;;;;;2.30;0.83;;;;;;;8.40;95.43;98526.28;5034415;28;20443;-66
2023/11/04 02:54:57;;;;;;;2.10;0.63;;;;;;;8.40;95.44;98528.97;5034673;28;20958;-66
2023/11/04 02:57:25;;;;;;;2.00;0.40;;;;;;;8.40;95.24;98528.19;5034936;28;20534;-66
2023/11/04 02:59:52;;;;;;;1.87;0.40;;;;;;;8.35;94.69;98524.56;5035702;28;20447;-67
2023/11/04 03:02:19;;;;;;;1.90;0.40;;;;;;;8.27;95.78;98528.13;5035077;28;20474;-67
2023/11/04 03:04:45;;;;;;;1.90;0.40;;;;;;;8.26;94.90;98529.28;5034882;28;20455;-67
2023/11/04 03:07:12;;;;;;;2.17;0.57;;;;;;;8.19;94.94;98523.66;5035287;28;20525;-67
2023/11/04 03:09:39;;;;;;;2.00;0.50;;;;;;;8.14;94.98;98521.16;5034567;28;21001;-66
2023/11/04 03:12:06;;;;;;;3.80;0.90;;;;;;;8.07;95.49;98531.72;5034897;28;20451;-66
2023/11/04 03:14:34;;;;;;;2.67;0.80;;;;;;;8.08;95.64;98527.91;5034841;28;20463;-66
2023/11/04 03:17:00;;;;;;;2.00;0.50;;;;;;;8.11;95.90;98532.63;5034680;28;20498;-67
2023/11/04 03:19:27;;;;;;;2.00;0.47;;;;;;;8.11;96.22;98527.25;5034411;28;20439;-67
2023/11/04 03:21:56;;;;;;;2.00;0.50;;;;;;;8.09;97.39;98532.94;5034203;28;20445;-67
2023/11/04 03:24:23;;;;;;;2.00;0.50;;;;;;;8.09;97.66;98535.66;5034574;28;20521;-69
2023/11/04 03:26:50;;;;;;;1.90;0.60;;;;;;;8.11;97.52;98529.16;5034546;28;20458;-67
2023/11/04 03:29:16;;;;;;;3.03;0.50;;;;;;;8.09;97.64;98530.25;5034220;28;20834;-67
2023/11/04 03:31:44;;;;;;;2.30;0.67;;;;;;;8.08;97.38;98536.00;5033922;28;21013;-67
2023/11/04 03:34:11;;;;;;;2.10;0.57;;;;;;;8.05;96.35;98525.88;5034217;28;20491;-67
2023/11/04 03:36:38;;;;;;;2.00;0.50;;;;;;;8.04;96.68;98530.47;5034481;28;20442;-67
2023/11/04 03:39:05;;;;;;;1.90;0.40;;;;;;;8.03;96.99;98536.22;5034652;28;20496;-67
2023/11/04 03:41:31;;;;;;;2.20;0.60;;;;;;;8.03;97.60;98536.22;5034644;28;20471;-67
2023/11/04 03:43:58;;;;;;;1.90;0.50;;;;;;;8.02;97.04;98534.66;5033776;28;20475;-67
2023/11/04 03:46:25;;;;;;;2.93;0.60;;;;;;;7.97;96.83;98538.34;5034066;28;20812;-67
2023/11/04 03:48:53;;;;;;;2.00;0.40;;;;;;;7.98;97.56;98531.81;5032968;28;20497;-66
2023/11/04 03:51:19;;;;;;;2.20;0.80;;;;;;;7.99;97.48;98535.31;5034013;28;20491;-66
2023/11/04 03:53:46;;;;;;;2.00;0.60;;;;;;;7.97;97.37;98537.53;5033935;28;20550;-66
2023/11/04 03:56:12;;;;;;;2.93;0.70;;;;;;;7.97;97.59;98537.53;5033625;28;20529;-66
2023/11/04 03:58:39;;;;;;;1.97;0.40;;;;;;;7.90;97.31;98529.22;5033904;28;20525;-66
2023/11/04 04:01:06;;;;;;;1.97;0.50;;;;;;;7.91;96.89;98530.78;5033914;28;20442;-66
2023/11/04 04:03:33;;;;;;;2.30;0.60;;;;;;;7.89;96.77;98535.75;5033661;28;20541;-66
2023/11/04 04:06:01;;;;;;;2.20;0.60;;;;;;;7.85;96.94;98524.84;5033812;28;20485;-66
2023/11/04 04:08:28;;;;;;;2.00;0.50;;;;;;;7.80;96.81;98527.75;5033829;28;20526;-66
2023/11/04 04:10:54;;;;;;;2.87;0.63;;;;;;;7.77;96.68;98523.00;5033734;28;20487;-66
2023/11/04 04:13:21;;;;;;;1.90;0.50;;;;;;;7.75;97.55;98523.34;5033609;28;20546;-66
2023/11/04 04:15:48;;;;;;;5.40;1.03;;;;;;;7.75;97.77;98528.75;5033690;28;20530;-66
2023/11/04 04:18:14;;;;;;;2.03;0.60;;;;;;;7.76;97.67;98522.22;5033252;28;20465;-67
2023/11/04 04:20:41;;;;;;;2.00;0.43;;;;;;;7.81;96.73;98524.72;5033655;28;20439;-66
2023/11/04 04:23:09;;;;;;;2.20;0.50;;;;;;;7.79;96.95;98524.28;5034127;28;20520;-66
2023/11/04 04:25:37;;;;;;;2.60;0.80;;;;;;;7.80;96.99;98536.63;5033539;28;20450;-67
2023/11/04 04:28:04;;;;;;;1.90;0.40;;;;;;;7.83;96.88;98538.66;5033846;28;20892;-67
2023/11/04 04:30:31;;;;;;;2.63;0.83;;;;;;;7.82;97.03;98537.06;5033635;28;20538;-66
2023/11/04 04:32:58;;;;;;;2.00;0.50;;;;;;;7.82;96.77;98533.56;5033467;28;20446;-66
2023/11/04 04:35:24;;;;;;;1.90;0.40;;;;;;;7.81;96.88;98537.41;5033555;28;20688;-66
2023/11/04 04:37:51;;;;;;;2.10;0.60;;;;;;;7.80;96.41;98525.06;5033507;28;20446;-66
2023/11/04 04:40:19;;;;;;;2.07;0.67;;;;;;;7.78;96.15;98529.97;5033562;28;20435;-66
2023/11/04 04:42:45;;;;;;;1.90;0.50;;;;;;;7.77;97.15;98526.50;5033198;28;20475;-66
2023/11/04 04:45:12;;;;;;;2.00;0.40;;;;;;;7.79;96.53;98531.53;5033336;28;20459;-66
2023/11/04 04:47:40;;;;;;;1.90;0.40;;;;;;;7.82;96.48;98526.28;5033516;28;20529;-66
2023/11/04 04:50:06;;;;;;;1.90;0.40;;;;;;;7.82;96.79;98526.28;5033391;28;20484;-66
2023/11/04 04:52:33;;;;;;;6.13;0.50;;;;;;;7.85;96.43;98527.53;5033773;28;20500;-66
2023/11/04 04:55:00;;;;;;;2.97;0.50;;;;;;;7.84;96.15;98532.13;5033015;28;20459;-66
2023/11/04 04:57:28;;;;;;;1.90;0.50;;;;;;;7.85;96.44;98530.22;5033227;28;20505;-66
2023/11/04 04:59:55;;;;;;;1.90;0.40;;;;;;;7.87;96.82;98537.97;5033781;28;20493;-66
2023/11/04 05:02:21;;;;;;;3.30;0.70;;;;;;;7.85;96.67;98532.91;5033231;28;20828;-66
2023/11/04 05:04:48;;;;;;;2.13;0.60;;;;;;;7.86;96.93;98533.69;5033500;28;20464;-66
2023/11/04 05:07:14;;;;;;;3.80;1.20;;;;;;;7.89;97.38;98536.53;5033152;28;20450;-66
2023/11/04 05:09:41;;;;;;;2.00;0.50;;;;;;;7.93;97.49;98539.34;5033388;28;20506;-66
2023/11/04 05:12:08;;;;;;;2.60;0.80;;;;;;;7.93;97.01;98532.03;5033154;28;20565;-66
2023/11/04 05:14:36;;;;;;;2.00;0.50;;;;;;;7.95;96.28;98534.41;5034485;28;20534;-66
2023/11/04 05:17:02;;;;;;;2.70;0.93;;;;;;;7.96;96.26;98530.56;5037083;28;20534;-66
2023/11/04 05:19:29;;;;;;;1.90;0.40;;;;;;;7.94;96.14;98533.63;5037037;28;20500;-66
2023/11/04 05:21:55;;;;;;;2.17;0.70;;;;;;;7.94;96.06;98532.81;5036638;28;20439;-66
2023/11/04 05:24:22;;;;;;;3.93;1.43;;;;;;;7.95;97.33;98537.09;5036292;28;20463;-66
2023/11/04 05:26:48;;;;;;;1.80;0.40;;;;;;;7.98;97.10;98533.75;5036557;28;20837;-66
2023/11/04 05:29:15;;;;;;;1.90;0.40;;;;;;;7.96;96.84;98530.56;5036563;28;20518;-66
2023/11/04 05:31:43;;;;;;;2.20;0.73;;;;;;;7.95;97.40;98534.41;5036432;28;20894;-66
2023/11/04 05:34:11;;;;;;;3.60;0.60;;;;;;;7.99;96.33;98532.59;5036476;28;20501;-67
2023/11/04 05:36:38;;;;;;;2.67;0.63;;;;;;;7.96;96.84;98539.44;5036524;28;20446;-67
2023/11/04 05:39:07;;;;;;;2.40;0.73;;;;;;;7.95;96.42;98535.19;5036665;28;20849;-67
2023/11/04 05:41:33;;;;;;;2.20;0.60;;;;;;;7.97;97.11;98542.91;5036361;28;20447;-67
2023/11/04 05:44:00;;;;;;;1.90;0.40;;;;;;;7.95;98.78;98539.78;5036101;28;20637;-67
2023/11/04 05:46:27;;;;;;;2.03;0.50;;;;;;;7.98;97.20;98533.75;5036173;28;20530;-67
2023/11/04 05:48:55;;;;;;;2.77;0.87;;;;;;;7.95;96.97;98537.88;5035815;28;20479;-67
2023/11/04 05:51:25;;;;;;;2.30;0.60;;;;;;;7.95;96.52;98532.47;5036283;28;20596;-66
2023/11/04 05:53:52;;;;;;;2.63;0.73;;;;;;;7.94;96.16;98536.31;5035964;28;20502;-67
2023/11/04 05:56:19;;;;;;;1.90;0.40;;;;;;;7.93;96.89;98529.34;5035953;28;20530;-66
2023/11/04 05:58:47;;;;;;;1.90;0.50;;;;;;;7.93;97.77;98533.97;5035570;28;20948;-67
2023/11/04 06:01:14;;;;;;;2.03;0.57;;;;;;;7.92;97.40;98535.06;5035722;28;20435;-67
2023/11/04 06:03:40;;;;;;;2.83;0.70;;;;;;;7.90;97.46;98531.91;5035830;28;20491;-67
2023/11/04 06:06:08;;;;;;;1.90;0.40;;;;;;;7.92;96.99;98535.06;5035775;28;20864;-67
2023/11/04 06:08:35;;;;;;;2.07;0.53;;;;;;;7.90;96.74;98538.09;5035706;28;20494;-68
2023/11/04 06:11:02;;;;;;;1.97;0.47;;;;;;;7.89;96.97;98533.03;5035705;28;20986;-66
2023/11/04 06:13:29;;;;;;;1.90;0.40;;;;;;;7.87;96.84;98530.66;5035628;28;20469;-67
2023/11/04 06:15:56;;;;;;;2.10;0.50;;;;;;;7.88;96.93;98539.53;5035517;28;20522;-67
2023/11/04 06:18:22;;;;;;;2.60;0.60;;;;;;;7.90;96.44;98540.78;5035568;28;20974;-67
2023/11/04 06:20:49;;;;;;;2.50;0.70;;;;;;;7.91;95.62;98544.28;5035228;28;20497;-67
2023/11/04 06:23:17;;;;;;;2.20;0.60;;;;;;;7.94;95.27;98532.81;5035434;28;20465;-66
2023/11/04 06:25:43;;;;;;;1.97;0.43;;;;;;;7.89;95.16;98535.75;5035496;28;20844;-68
2023/11/04 06:28:10;;;;;;;2.00;0.50;;;;;;;7.90;95.73;98538.09;5035237;28;20510;-66
2023/11/04 06:30:37;;;;;;;1.90;0.40;;;;;;;7.90;95.69;98532.69;5035472;28;20467;-66
2023/11/04 06:33:04;;;;;;;2.17;0.50;;;;;;;7.92;95.09;98530.44;5035029;28;20443;-66
2023/11/04 06:35:33;;;;;;;2.07;0.50;;;;;;;7.94;95.17;98528.22;5035340;28;20935;-66
2023/11/04 06:38:01;;;;;;;2.03;0.53;;;;;;;7.96;94.85;98530.56;5035112;28;20443;-66
2023/11/04 06:40:29;;;;;;;1.90;0.40;;;;;;;7.96;94.99;98530.56;5035207;28;20501;-66
2023/11/04 06:42:55;;;;;;;1.90;0.40;;;;;;;8.00;94.39;98534.19;5039558;23;21062;-70
2023/11/04 06:45:22;;;;;;;1.90;0.40;;;;;;;8.01;93.89;98525.78;5034912;28;20443;-70
2023/11/04 06:47:49;;;;;;;2.00;0.50;;;;;;;7.99;94.94;98530.69;5035100;28;20443;-70
2023/11/04 06:50:15;;;;;;;2.00;0.50;;;;;;;8.02;94.63;98529.25;5035257;28;20439;-70
2023/11/04 06:52:42;;;;;;;2.13;0.70;;;;;;;8.00;94.27;98537.66;5034730;28;20519;-70
2023/11/04 06:55:09;;;;;;;1.90;0.40;;;;;;;8.02;95.03;98521.16;5034345;28;21035;-70
2023/11/04 06:57:37;;;;;;;2.00;0.40;;;;;;;8.03;95.76;98520.03;5035054;28;20443;-70
2023/11/04 07:00:05;;;;;;;2.33;0.50;;;;;;;8.04;96.13;98521.59;5034864;28;20450;-70
2023/11/04 07:02:32;;;;;;;1.90;0.40;;;;;;;8.03;95.14;98522.72;5034350;28;20489;-70
2023/11/04 07:04:59;;;;;;;1.90;0.50;;;;;;;8.01;95.12;98523.06;5034363;28;20459;-71
2023/11/04 07:07:26;;;;;;;1.80;0.40;;;;;;;8.03;95.37;98520.81;5034474;28;20454;-70
2023/11/04 07:09:52;;;;;;;2.10;0.43;;;;;;;8.01;96.10;98517.69;5034545;28;20534;-70
2023/11/04 07:12:19;;;;;;;1.90;0.40;;;;;;;8.00;97.01;98520.69;5034279;28;20557;-70
2023/11/04 07:14:47;;;;;;;2.47;0.63;;;;;;;8.03;97.04;98528.13;5034346;28;20459;-70
2023/11/04 07:17:14;;;;;;;1.90;0.43;;;;;;;8.01;96.23;98523.06;5034342;28;20443;-70
2023/11/04 07:19:40;;;;;;;3.30;0.70;;;;;;;8.00;95.88;98531.47;5034207;28;20447;-70
2023/11/04 07:22:09;;;;;;;2.40;0.70;;;;;;;8.01;95.69;98533.06;5034520;28;20482;-70
2023/11/04 07:24:35;;;;;;;2.10;0.60;;;;;;;7.97;95.90;98529.44;5034398;28;20459;-70
2023/11/04 07:27:02;;;;;;;2.10;0.57;;;;;;;7.93;95.50;98525.88;5034208;28;20513;-70
2023/11/04 07:29:29;;;;;;;2.00;0.50;;;;;;;7.93;95.94;98518.56;5034171;28;20505;-70
2023/11/04 07:31:57;;;;;;;2.03;0.50;;;;;;;7.96;96.56;98520.56;5034458;28;20859;-70
2023/11/04 07:34:30;;;;;;;2.30;0.80;;;;;;;8.03;96.40;98522.72;5033824;28;20455;-70
2023/11/04 07:36:57;;;;;;;2.17;0.60;;;;;;;8.05;96.25;98517.78;5034252;28;20424;-70
2023/11/04 07:39:23;;;;;;;2.30;0.57;;;;;;;8.05;96.43;98515.09;5033989;28;20534;-69
2023/11/04 07:41:50;;;;;;;2.17;0.53;;;;;;;8.01;97.08;98511.47;5034437;28;20802;-69
2023/11/04 07:44:17;;;;;;;3.10;0.60;;;;;;;8.03;96.98;98511.94;5033544;28;20996;-70
2023/11/04 07:46:44;;;;;;;1.80;0.30;;;;;;;8.02;98.32;98513.09;5033966;28;20450;-70
2023/11/04 07:49:12;;;;;;;1.90;0.50;;;;;;;8.07;98.73;98510.16;5034060;28;20451;-71
2023/11/04 07:51:39;;;;;;;2.07;0.57;;;;;;;8.11;97.67;98508.38;5034446;28;20479;-71
2023/11/04 07:54:06;;;;;;;2.30;0.50;;;;;;;8.13;97.95;98503.41;5034301;28;20459;-70
2023/11/04 07:56:32;;;;;;;2.30;0.50;;;;;;;8.16;97.69;98502.75;5033701;28;20439;-71
2023/11/04 07:58:59;;;;;;;2.20;0.77;;;;;;;8.20;98.28;98498.25;5033680;28;20525;-70
2023/11/04 08:01:26;;;;;;;2.10;0.50;;;;;;;8.19;98.40;98491.31;5033391;28;20811;-71
2023/11/04 08:03:53;;;;;;;1.97;0.53;;;;;;;8.25;98.79;98486.47;5033177;28;20502;-71
2023/11/04 08:06:21;;;;;;;2.37;0.60;;;;;;;8.30;98.65;98486.22;5033304;28;20817;-71
2023/11/04 08:08:48;;;;;;;2.63;0.70;;;;;;;8.33;99.14;98483.66;5033402;28;21000;-70
2023/11/04 08:11:15;;;;;;;2.23;0.50;;;;;;;8.41;98.86;98475.78;5033441;28;20513;-69
2023/11/04 08:13:42;;;;;;;1.90;0.40;;;;;;;8.46;97.97;98483.69;5034161;28;20463;-70
2023/11/04 08:16:09;;;;;;;1.93;0.50;;;;;;;8.52;97.29;98477.72;5033487;28;20443;-68
2023/11/04 08:18:36;;;;;;;2.03;0.60;;;;;;;8.58;96.84;98481.72;5033770;28;20442;-71
2023/11/04 08:21:02;;;;;;;2.07;0.47;;;;;;;8.63;96.06;98479.94;5033474;28;20443;-72
2023/11/04 08:23:30;;;;;;;2.00;0.50;;;;;;;8.71;94.74;98477.13;5033424;28;20537;-71
2023/11/04 08:25:57;;;;;;;2.20;0.70;;;;;;;8.74;95.13;98483.75;5033871;28;20445;-71
2023/11/04 08:28:25;;;;;;;4.13;0.87;;;;;;;8.79;94.90;98480.81;5033344;28;20435;-70
2023/11/04 08:30:52;;;;;;;2.33;0.67;;;;;;;8.84;94.38;98475.97;5033231;28;20451;-70
2023/11/04 08:33:18;;;;;;;2.10;0.70;;;;;;;8.91;93.64;98470.00;5032905;28;20537;-69
2023/11/04 08:35:45;;;;;;;2.30;0.70;;;;;;;8.95;93.25;98472.81;5033312;28;20447;-69
2023/11/04 08:38:12;;;;;;;2.10;0.50;;;;;;;9.01;92.69;98472.19;5033253;28;20473;-69
2023/11/04 08:40:40;;;;;;;2.10;0.57;;;;;;;9.05;91.82;98473.09;5033175;28;20493;-69
2023/11/04 08:43:06;;;;;;;2.53;0.97;;;;;;;9.05;91.11;98473.09;5032856;28;20490;-70
2023/11/04 08:45:33;;;;;;;2.40;0.70;;;;;;;9.08;91.31;98482.44;5032943;28;20443;-69
2023/11/04 08:48:00;;;;;;;1.80;0.30;;;;;;;9.10;91.60;98470.16;5033319;28;20526;-75
2023/11/04 08:50:28;;;;;;;2.10;0.60;;;;;;;9.14;91.01;98475.66;5036066;28;20438;-70
2023/11/04 08:52:55;;;;;;;2.40;0.53;;;;;;;9.15;90.29;98466.41;5036996;28;20514;-70
2023/11/04 08:55:22;;;;;;;2.77;0.90;;;;;;;9.20;90.41;98468.88;5036987;28;20467;-70
2023/11/04 08:57:50;;;;;;;2.00;0.50;;;;;;;9.30;89.19;98468.41;5036655;28;21089;-70
2023/11/04 09:00:17;;;;;;;2.93;1.00;;;;;;;9.34;89.68;98477.38;5036890;28;20867;-71
2023/11/04 09:02:43;;;;;;;1.90;0.40;;;;;;;9.41;88.97;98470.59;5036581;28;20430;-70
2023/11/04 09:05:10;;;;;;;1.87;0.37;;;;;;;9.44;87.61;98467.22;5036070;28;20470;-70
2023/11/04 09:07:36;;;;;;;2.00;0.60;;;;;;;9.46;88.28;98463.00;5035836;28;20534;-70
2023/11/04 09:10:03;;;;;;;2.50;0.80;;;;;;;9.49;88.73;98465.03;5036508;28;20445;-69
2023/11/04 09:12:30;;;;;;;2.10;0.70;;;;;;;9.52;89.43;98464.34;5037036;28;20541;-69
2023/11/04 09:14:58;;;;;;;2.13;0.63;;;;;;;9.60;88.64;98468.78;5036642;28;20470;-70
2023/11/04 09:17:25;;;;;;;2.10;0.67;;;;;;;9.69;86.67;98474.03;5036595;28;20534;-70
2023/11/04 09:19:51;;;;;;;2.40;0.60;;;;;;;9.73;86.48;98474.13;5036813;28;20794;-70
2023/11/04 09:22:18;;;;;;;3.73;0.80;;;;;;;9.79;86.55;98472.75;5036867;28;20435;-70
2023/11/04 09:24:44;;;;;;;2.10;0.73;;;;;;;9.85;84.61;98472.13;5036748;28;20490;-70
2023/11/04 09:27:11;;;;;;;2.97;1.90;;;;;;;9.89;83.61;98477.63;5036480;28;20439;-70
2023/11/04 09:29:38;;;;;;;1.90;0.47;;;;;;;9.92;83.50;98470.75;5036380;28;20490;-70
2023/11/04 09:32:07;;;;;;;2.40;0.80;;;;;;;9.91;84.46;98467.25;5036210;28;20511;-70
2023/11/04 09:34:33;;;;;;;2.97;0.90;;;;;;;10.00;83.37;98472.50;5036127;28;20554;-70
2023/11/04 09:37:00;;;;;;;2.10;0.70;;;;;;;10.03;84.25;98466.38;5036305;28;20526;-69
2023/11/04 09:39:26;;;;;;;2.00;0.50;;;;;;;10.09;84.05;98463.09;5036519;28;20474;-69
2023/11/04 09:41:53;;;;;;;2.10;0.60;;;;;;;10.18;82.68;98465.63;5035981;28;20517;-69
2023/11/04 09:44:20;;;;;;;1.97;0.57;;;;;;;10.21;83.02;98454.06;5036115;28;20459;-69
2023/11/04 09:46:47;;;;;;;2.10;0.63;;;;;;;10.27;83.54;98458.13;5035681;28;20442;-70
2023/11/04 09:49:15;;;;;;;2.27;0.80;;;;;;;10.32;83.76;98449.72;5035915;28;20445;-71
2023/11/04 09:51:43;;;;;;;2.67;0.80;;;;;;;10.44;83.19;98458.88;5035766;28;20482;-72
2023/11/04 09:54:11;;;;;;;2.00;0.60;;;;;;;10.51;82.54;98443.56;5035790;28;20459;-70
2023/11/04 09:56:38;;;;;;;2.20;0.70;;;;;;;10.62;81.80;98443.78;5035835;28;20447;-70
2023/11/04 09:59:07;;;;;;;2.50;0.70;;;;;;;10.69;80.09;98443.97;5035439;28;20927;-70
2023/11/04 10:01:34;;;;;;;2.10;0.60;;;;;;;10.76;80.98;98435.22;5036118;28;20443;-70
2023/11/04 10:04:00;;;;;;;2.17;0.63;;;;;;;10.82;80.03;98434.56;5035602;28;20471;-70
2023/11/04 10:06:29;;;;;;;3.30;0.63;;;;;;;10.92;77.36;98440.56;5035708;28;20518;-70
2023/11/04 10:08:55;;;;;;;2.60;0.60;;;;;;;11.04;75.41;98429.59;5036242;28;20442;-69
2023/11/04 10:11:22;;;;;;;2.47;0.50;;;;;;;11.07;75.68;98434.31;5035805;28;20471;-70
2023/11/04 10:13:49;;;;;;;2.10;0.60;;;;;;;11.12;75.86;98423.19;5035493;28;20518;-70
2023/11/04 10:16:18;;;;;;;2.33;0.70;;;;;;;11.17;76.19;98427.53;5035777;28;20474;-70
2023/11/04 10:18:45;;;;;;;2.10;0.70;;;;;;;11.24;74.52;98420.28;5035524;28;20431;-70
2023/11/04 10:21:12;;;;;;;2.80;0.57;;;;;;;11.30;74.28;98416.16;5035436;28;20534;-70
2023/11/04 10:23:40;;;;;;;2.07;0.53;;;;;;;11.45;70.57;98419.13;5035861;28;20546;-71
2023/11/04 10:26:07;;;;;;;2.30;0.67;;;;;;;11.44;71.45;98412.94;5035693;28;20493;-71
2023/11/04 10:28:35;;;;;;;2.20;0.67;;;;;;;11.52;70.99;98416.56;5035304;28;20447;-70
2023/11/04 10:31:05;;;;;;;1.80;0.40;;;;;;;11.67;67.75;98414.88;5035870;28;20863;-70
2023/11/04 10:33:36;;;;;;;2.00;0.47;;;;;;;11.77;67.17;98411.53;5034843;28;20487;-70
2023/11/04 10:36:05;;;;;;;1.80;0.40;;;;;;;11.78;66.29;98405.78;5034919;28;20485;-71
2023/11/04 10:38:33;;;;;;;1.90;0.40;;;;;;;11.84;67.45;98401.63;5035379;28;20459;-70
2023/11/04 10:41:03;;;;;;;2.53;0.50;;;;;;;11.95;67.01;98401.00;5035328;28;20446;-71
2023/11/04 10:43:37;;;;;;;2.50;0.50;;;;;;;12.07;65.64;98400.81;5034761;28;20550;-70
2023/11/04 10:46:09;;;;;;;2.00;0.60;;;;;;;12.21;65.79;98390.16;5035233;28;20782;-70
2023/11/04 10:48:43;;;;;;;2.30;0.73;;;;;;;12.37;66.30;98390.00;5034961;28;20796;-70
2023/11/04 10:51:17;;;;;;;2.00;0.50;;;;;;;12.45;64.12;98388.97;5034977;28;20462;-70
2023/11/04 10:53:57;;;;;;;2.00;0.40;;;;;;;12.43;66.12;98380.38;5034609;28;20521;-71
2023/11/04 10:56:27;;;;;;;2.10;0.60;;;;;;;12.51;64.97;98392.91;5034542;28;20506;-71
2023/11/04 10:59:04;;;;;;;2.70;0.70;;;;;;;12.50;63.49;98383.22;5035035;28;20431;-70
2023/11/04 11:01:33;;;;;;;1.90;0.40;;;;;;;12.47;64.89;98391.31;5034432;28;20423;-70
2023/11/04 11:04:02;;;;;;;2.07;0.60;;;;;;;12.45;66.29;98383.53;5034530;28;20498;-70
2023/11/04 11:06:30;;;;;;;2.73;0.63;;;;;;;12.41;67.33;98385.41;5034744;28;20444;-71
2023/11/04 11:09:00;;;;;;;2.87;0.63;;;;;;;12.60;66.24;98376.34;5034717;28;20523;-71
2023/11/04 11:11:36;;;;;;;2.23;0.50;;;;;;;12.76;64.95;98376.16;5034140;28;20432;-70
2023/11/04 11:14:05;;;;;;;3.00;0.70;;;;;;;12.73;63.49;98372.25;5033908;28;20522;-70
2023/11/04 11:16:32;;;;;;;1.80;0.40;;;;;;;12.86;64.16;98381.72;5034516;28;20450;-70
2023/11/04 11:19:07;;;;;;;2.17;0.67;;;;;;;13.29;64.52;98381.44;5034136;28;20860;-71
2023/11/04 11:21:45;;;;;;;2.10;0.70;;;;;;;13.53;61.08;98374.66;5034365;28;20497;-71
2023/11/04 11:24:12;;;;;;;2.40;0.53;;;;;;;13.97;59.59;98379.31;5034643;28;20459;-70
2023/11/04 11:26:48;;;;;;;2.63;0.80;;;;;;;14.93;56.70;98379.88;5034044;28;20478;-70
2023/11/04 11:29:22;;;;;;;2.10;0.40;;;;;;;14.99;56.03;98380.25;5034263;28;20427;-70
2023/11/04 11:31:50;;;;;;;2.00;0.40;;;;;;;15.22;54.83;98369.03;5034232;28;20444;-71
2023/11/04 11:34:16;;;;;;;2.63;0.73;;;;;;;16.00;53.61;98373.78;5033994;28;20589;-71
2023/11/04 11:36:44;;;;;;;1.90;0.40;;;;;;;16.67;51.50;98378.31;5033964;28;20538;-71
2023/11/04 11:39:11;;;;;;;2.70;0.63;;;;;;;17.06;49.62;98371.94;5034463;28;20497;-71
2023/11/04 11:41:38;;;;;;;2.73;0.93;;;;;;;17.54;49.08;98372.03;5033970;28;20921;-70
2023/11/04 11:44:07;;;;;;;1.80;0.40;;;;;;;18.02;46.70;98376.00;5033828;28;20478;-71